地図

経路データ

SID SEASON NUMBER BASIN SUBBASIN NAME ISO_TIME NATURE LAT LON WMO_WIND WMO_PRES WMO_AGENCY TRACK_TYPE DIST2LAND LANDFALL IFLAG USA_AGENCY USA_ATCF_ID USA_LAT USA_LON USA_RECORD USA_STATUS USA_WIND USA_PRES USA_SSHS USA_R34_NE USA_R34_SE USA_R34_SW USA_R34_NW USA_R50_NE USA_R50_SE USA_R50_SW USA_R50_NW USA_R64_NE USA_R64_SE USA_R64_SW USA_R64_NW USA_POCI USA_ROCI USA_RMW USA_EYE TOKYO_LAT TOKYO_LON TOKYO_GRADE TOKYO_WIND TOKYO_PRES TOKYO_R50_DIR TOKYO_R50_LONG TOKYO_R50_SHORT TOKYO_R30_DIR TOKYO_R30_LONG TOKYO_R30_SHORT TOKYO_LAND CMA_LAT CMA_LON CMA_CAT CMA_WIND CMA_PRES HKO_LAT HKO_LON HKO_CAT HKO_WIND HKO_PRES NEWDELHI_LAT NEWDELHI_LON NEWDELHI_GRADE NEWDELHI_WIND NEWDELHI_PRES NEWDELHI_CI NEWDELHI_DP NEWDELHI_POCI REUNION_LAT REUNION_LON REUNION_TYPE REUNION_WIND REUNION_PRES REUNION_TNUM REUNION_CI REUNION_RMW REUNION_R34_NE REUNION_R34_SE REUNION_R34_SW REUNION_R34_NW REUNION_R50_NE REUNION_R50_SE REUNION_R50_SW REUNION_R50_NW REUNION_R64_NE REUNION_R64_SE REUNION_R64_SW REUNION_R64_NW BOM_LAT BOM_LON BOM_TYPE BOM_WIND BOM_PRES BOM_TNUM BOM_CI BOM_RMW BOM_R34_NE BOM_R34_SE BOM_R34_SW BOM_R34_NW BOM_R50_NE BOM_R50_SE BOM_R50_SW BOM_R50_NW BOM_R64_NE BOM_R64_SE BOM_R64_SW BOM_R64_NW BOM_ROCI BOM_POCI BOM_EYE BOM_POS_METHOD BOM_PRES_METHOD NADI_LAT NADI_LON NADI_CAT NADI_WIND NADI_PRES WELLINGTON_LAT WELLINGTON_LON WELLINGTON_WIND WELLINGTON_PRES DS824_LAT DS824_LON DS824_STAGE DS824_WIND DS824_PRES TD9636_LAT TD9636_LON TD9636_STAGE TD9636_WIND TD9636_PRES TD9635_LAT TD9635_LON TD9635_WIND TD9635_PRES TD9635_ROCI NEUMANN_LAT NEUMANN_LON NEUMANN_CLASS NEUMANN_WIND NEUMANN_PRES MLC_LAT MLC_LON MLC_CLASS MLC_WIND MLC_PRES USA_GUST BOM_GUST BOM_GUST_PER REUNION_GUST REUNION_GUST_PER USA_SEAHGT USA_SEARAD_NE USA_SEARAD_SE USA_SEARAD_SW USA_SEARAD_NW STORM_SPEED STORM_DIR
1859152S05087 1859 11 SI MM NOT_NAMED 1859-05-31 18:00:00 NR -4.70000 87.0000 main 1275 1275 __________O___ -1 -4.70000 87.0000 7 4 234
1859152S05087 1859 11 SI MM NOT_NAMED 1859-05-31 21:00:00 NR -4.81090 86.8452 main 1299 1299 __________P___ -1 -4.81090 86.8452 7 4 234
1859152S05087 1859 11 SI MM NOT_NAMED 1859-06-01 00:00:00 NR -4.93743 86.6724 main 1315 1315 __________P___ -1 -4.93743 86.6724 7 5 233
1859152S05087 1859 11 SI MM NOT_NAMED 1859-06-01 03:00:00 NR -5.09525 86.4633 main 1346 1346 __________P___ -1 -5.09525 86.4633 7 6 232
1859152S05087 1859 11 SI MM NOT_NAMED 1859-06-01 06:00:00 NR -5.30000 86.2000 main 1386 1386 __________O___ -1 -5.30000 86.2000 7 8 232
1859152S05087 1859 11 SI MM NOT_NAMED 1859-06-01 09:00:00 NR -5.56102 85.8713 main 1416 1412 __________P___ -1 -5.56102 85.8713 7 9 231
1859152S05087 1859 11 SI MM NOT_NAMED 1859-06-01 12:00:00 NR -5.86262 85.4951 main 1430 1425 __________P___ -1 -5.86262 85.4951 7 10 231
1859152S05087 1859 11 SI MM NOT_NAMED 1859-06-01 15:00:00 NR -6.18289 85.0963 main 1445 1441 __________P___ -1 -6.18289 85.0963 7 10 231
1859152S05087 1859 11 SI MM NOT_NAMED 1859-06-01 18:00:00 NR -6.50000 84.7000 main 1462 1458 __________O___ -1 -6.50000 84.7000 7 10 232
1859152S05087 1859 11 SI MM NOT_NAMED 1859-06-01 21:00:00 NR -6.76988 84.3466 main 1481 1478 __________P___ -1 -6.76988 84.3466 7 9 232
1859152S05087 1859 11 SI MM NOT_NAMED 1859-06-02 00:00:00 NR -7.03483 83.9996 main 1494 1494 __________P___ -1 -7.03483 83.9996 7 9 232
1859152S05087 1859 11 SI MM NOT_NAMED 1859-06-02 03:00:00 NR -7.30737 83.6528 main 1518 1516 __________P___ -1 -7.30737 83.6528 7 9 231
1859152S05087 1859 11 SI MM NOT_NAMED 1859-06-02 06:00:00 NR -7.60000 83.3000 main 1542 1542 __________O___ -1 -7.60000 83.3000 7 10 228
1859152S05087 1859 11 SI MM NOT_NAMED 1859-06-02 09:00:00 NR -7.94055 82.9322 main 1567 1567 __________P___ -1 -7.94055 82.9322 7 10 226
1859152S05087 1859 11 SI MM NOT_NAMED 1859-06-02 12:00:00 NR -8.29990 82.5575 main 1606 1605 __________P___ -1 -8.29990 82.5575 7 10 226
1859152S05087 1859 11 SI MM NOT_NAMED 1859-06-02 15:00:00 NR -8.65930 82.1791 main 1645 1644 __________P___ -1 -8.65930 82.1791 7 10 227
1859152S05087 1859 11 SI MM NOT_NAMED 1859-06-02 18:00:00 NR -9.00000 81.8000 main 1674 1674 __________O___ -1 -9.00000 81.8000 7 10 229
1859152S05087 1859 11 SI MM NOT_NAMED 1859-06-02 21:00:00 NR -9.30796 81.4230 main 1705 1705 __________P___ -1 -9.30796 81.4230 7 10 232
1859152S05087 1859 11 SI MM NOT_NAMED 1859-06-03 00:00:00 NR -9.58778 81.0478 main 1737 1737 __________P___ -1 -9.58778 81.0478 7 9 234
1859152S05087 1859 11 SI MM NOT_NAMED 1859-06-03 03:00:00 NR -9.84872 80.6738 main 1759 1759 __________P___ -1 -9.84872 80.6738 7 9 235
1859152S05087 1859 11 SI MM NOT_NAMED 1859-06-03 06:00:00 NR -10.1000 80.3000 main 1793 __________O___ -1 -10.1000 80.3000 7 9 236

IBTrACS Databaseについて

本データベースは、米国NOAAが公開する1842年以降の世界の熱帯低気圧のベストトラックデータアーカイブInternational Best Track Archive for Climate Stewardship (IBTrACS)を、ウェブで閲覧しやすい形式に変換したものです。

最終更新日:2021-11-26